createdAt,value
2019-01-19T00:05:32.887Z,101433.47
2019-01-19T00:08:40.403Z,101427.82
2019-01-19T00:11:47.838Z,101420.50
2019-01-19T00:14:49.745Z,101423.52
2019-01-19T00:20:53.119Z,101413.53
2019-01-19T00:24:00.636Z,101407.94
2019-01-19T00:27:08.253Z,101406.64
2019-01-19T00:30:15.952Z,101402.35
2019-01-19T00:33:23.682Z,101411.85
2019-01-19T00:36:31.201Z,101407.11
2019-01-19T00:39:39.011Z,101404.48
2019-01-19T00:42:46.614Z,101400.17
2019-01-19T00:45:54.339Z,101401.47
2019-01-19T00:49:02.127Z,101406.66
2019-01-19T00:52:09.667Z,101398.86
2019-01-19T00:55:17.390Z,101396.69
2019-01-19T00:58:25.303Z,101402.33
2019-01-19T01:01:26.614Z,101405.77
2019-01-19T01:04:34.288Z,101404.91
2019-01-19T01:07:41.756Z,101401.87
2019-01-19T01:10:49.192Z,101396.66
2019-01-19T01:13:56.670Z,101398.83
2019-01-19T01:17:00.280Z,101389.75
2019-01-19T01:20:07.806Z,101391.48
2019-01-19T01:23:10.728Z,101395.83
2019-01-19T01:26:18.265Z,101396.66
2019-01-19T01:32:51.343Z,101391.47
2019-01-19T01:35:58.922Z,101392.33
2019-01-19T01:39:02.480Z,101384.12
2019-01-19T01:42:10.150Z,101384.55
2019-01-19T01:45:17.491Z,101378.95
2019-01-19T01:48:18.705Z,101384.14
2019-01-19T01:57:09.456Z,101378.05
2019-01-19T01:59:53.031Z,101373.69
2019-01-19T02:03:00.725Z,101369.36
2019-01-19T02:05:56.462Z,101369.78
2019-01-19T02:09:00.340Z,101376.72
2019-01-19T02:12:08.172Z,101371.06
2019-01-19T02:15:18.476Z,101365.05
2019-01-19T02:18:23.438Z,101368.58
2019-01-19T02:21:30.922Z,101366.34
2019-01-19T02:24:38.440Z,101370.66
2019-01-19T02:31:00.597Z,101363.30
2019-01-19T02:34:08.290Z,101362.42
2019-01-19T02:37:15.790Z,101361.97
2019-01-19T02:40:23.354Z,101355.48
2019-01-19T02:43:24.848Z,101357.65
2019-01-19T02:46:17.359Z,101355.47
2019-01-19T02:49:24.783Z,101350.72
2019-01-19T02:52:32.248Z,101347.67
2019-01-19T02:55:40.310Z,101345.06
2019-01-19T02:58:48.266Z,101338.55
2019-01-19T03:01:55.764Z,101335.95
2019-01-19T03:05:06.408Z,101344.60
2019-01-19T03:08:14.226Z,101334.65
2019-01-19T03:10:55.709Z,101332.94
2019-01-19T03:14:03.157Z,101335.55
2019-01-19T03:17:10.661Z,101329.02
2019-01-19T03:23:23.616Z,101324.66
2019-01-19T03:26:31.050Z,101323.77
2019-01-19T03:29:38.533Z,101320.34
2019-01-19T03:32:46.013Z,101313.86
2019-01-19T03:35:53.499Z,101312.10
2019-01-19T03:39:01.529Z,101312.50
2019-01-19T03:42:09.401Z,101315.91
2019-01-19T03:45:03.288Z,101310.72
2019-01-19T03:48:10.839Z,101303.34
2019-01-19T03:51:18.389Z,101307.22
2019-01-19T03:54:25.879Z,101296.84
2019-01-19T03:57:33.348Z,101299.88
2019-01-19T04:00:40.960Z,101296.80
2019-01-19T04:07:01.395Z,101298.16
2019-01-19T04:10:08.842Z,101292.91
2019-01-19T04:13:16.366Z,101287.28
2019-01-19T04:16:24.078Z,101289.41
2019-01-19T04:19:31.521Z,101291.16
2019-01-19T04:22:39.001Z,101292.01
2019-01-19T04:25:46.551Z,101287.69
2019-01-19T04:31:00.386Z,101284.64
2019-01-19T04:33:29.751Z,101291.55
2019-01-19T04:35:59.137Z,101283.35
2019-01-19T04:41:09.144Z,101279.44
2019-01-19T04:43:38.554Z,101279.38
2019-01-19T04:46:07.928Z,101277.26
2019-01-19T04:51:33.944Z,101279.38
2019-01-19T04:54:03.660Z,101278.53
2019-01-19T04:56:33.014Z,101274.19
2019-01-19T05:02:17.384Z,101271.60
2019-01-19T05:07:49.065Z,101265.98
2019-01-19T05:10:18.492Z,101256.49
2019-01-19T05:12:47.907Z,101255.61
2019-01-19T05:15:29.951Z,101255.61
2019-01-19T05:23:58.354Z,101250.89
2019-01-19T05:26:27.720Z,101254.34
2019-01-19T05:28:59.128Z,101257.78
2019-01-19T05:31:31.330Z,101254.73
2019-01-19T05:34:00.686Z,101254.31
2019-01-19T05:36:38.042Z,101246.95
2019-01-19T05:39:47.967Z,101248.70
2019-01-19T05:45:29.451Z,101243.52
2019-01-19T05:47:58.885Z,101245.25
2019-01-19T05:50:28.301Z,101246.95
2019-01-19T05:52:57.652Z,101242.63
2019-01-19T05:55:27.020Z,101246.09
2019-01-19T05:57:56.496Z,101245.66
2019-01-19T06:09:13.450Z,101247.36
2019-01-19T06:11:44.421Z,101247.77
2019-01-19T06:14:34.840Z,101243.41
2019-01-19T06:20:06.630Z,101254.67
2019-01-19T06:22:36.015Z,101252.48
2019-01-19T06:25:17.964Z,101246.44
2019-01-19T06:27:47.370Z,101251.63
2019-01-19T06:34:01.644Z,101253.33
2019-01-19T06:36:31.587Z,101249.44
2019-01-19T06:39:12.124Z,101255.92
2019-01-19T06:41:43.680Z,101255.92
2019-01-19T06:44:13.098Z,101254.22
2019-01-19T06:46:42.622Z,101252.92
2019-01-19T06:55:26.862Z,101256.36
2019-01-19T06:57:56.199Z,101243.41
2019-01-19T07:00:45.871Z,101248.59
2019-01-19T07:03:15.664Z,101242.98
2019-01-19T07:12:09.735Z,101243.84
2019-01-19T07:17:41.696Z,101247.27
2019-01-19T07:20:33.912Z,101251.14
2019-01-19T07:26:04.763Z,101246.41
2019-01-19T07:31:35.910Z,101247.25
2019-01-19T07:40:10.268Z,101258.48
2019-01-19T07:48:26.576Z,101249.08
2019-01-19T07:53:58.905Z,101257.72
2019-01-19T07:56:47.347Z,101252.55
2019-01-19T07:59:35.704Z,101258.59
2019-01-19T08:02:05.065Z,101262.05
2019-01-19T08:04:53.543Z,101257.77
2019-01-19T08:07:30.320Z,101262.05
2019-01-19T08:09:59.703Z,101259.50
2019-01-19T08:12:49.733Z,101262.99
2019-01-19T08:15:34.628Z,101257.81
2019-01-19T08:18:04.199Z,101262.61
2019-01-19T08:26:25.041Z,101265.67
2019-01-19T08:28:54.465Z,101256.63
2019-01-19T08:34:54.226Z,101255.83
2019-01-19T08:37:44.055Z,101255.88
2019-01-19T08:40:16.507Z,101259.75
2019-01-19T08:48:25.973Z,101258.94
2019-01-19T08:50:55.469Z,101248.59
2019-01-19T08:53:43.903Z,101251.21
2019-01-19T08:56:13.335Z,101255.98
2019-01-19T09:01:43.974Z,101251.28
2019-01-19T09:04:52.897Z,101254.74
2019-01-19T09:10:45.055Z,101251.79
2019-01-19T09:13:44.235Z,101254.40
2019-01-19T09:19:16.585Z,101252.69
2019-01-19T09:27:44.434Z,101251.92
2019-01-19T09:30:16.617Z,101257.17
2019-01-19T09:35:42.816Z,101254.17
2019-01-19T09:38:31.883Z,101257.25
2019-01-19T09:50:07.170Z,101250.36
2019-01-19T09:55:42.130Z,101245.17
2019-01-19T09:58:11.582Z,101244.75
2019-01-19T10:00:45.497Z,101243.87
2019-01-19T10:03:14.670Z,101232.65
2019-01-19T10:05:44.077Z,101224.85
2019-01-19T10:08:13.724Z,101230.04
2019-01-19T10:10:46.436Z,101223.53
2019-01-19T10:13:15.787Z,101224.84
2019-01-19T10:15:45.443Z,101222.22
2019-01-19T10:18:14.881Z,101216.59
2019-01-19T10:20:44.345Z,101223.08
2019-01-19T10:23:13.798Z,101217.89
2019-01-19T10:25:43.803Z,101218.31
2019-01-19T10:28:13.218Z,101214.83
2019-01-19T10:30:42.619Z,101211.36
2019-01-19T10:33:12.194Z,101216.11
2019-01-19T10:35:41.579Z,101216.55
2019-01-19T10:38:12.423Z,101213.94
2019-01-19T10:40:45.580Z,101211.73
2019-01-19T10:43:15.038Z,101210.45
2019-01-19T10:45:44.631Z,101200.84
2019-01-19T10:48:17.479Z,101200.41
2019-01-19T10:50:46.911Z,101199.96
2019-01-19T10:53:16.420Z,101199.52
2019-01-19T10:55:45.741Z,101196.45
2019-01-19T10:58:15.095Z,101195.98
2019-01-19T11:00:45.874Z,101188.16
2019-01-19T11:03:15.796Z,101185.13
2019-01-19T11:05:45.164Z,101179.46
2019-01-19T11:08:15.059Z,101176.82
2019-01-19T11:10:44.431Z,101173.77
2019-01-19T11:13:13.733Z,101166.36
2019-01-19T11:15:42.972Z,101166.80
2019-01-19T11:18:12.400Z,101168.05
2019-01-19T11:20:45.006Z,101160.13
2019-01-19T11:23:14.315Z,101153.19
2019-01-19T11:25:43.630Z,101160.10
2019-01-19T11:28:13.290Z,101158.72
2019-01-19T11:30:45.013Z,101159.56
2019-01-19T11:33:17.891Z,101151.30
2019-01-19T11:35:47.363Z,101146.03
2019-01-19T11:38:20.231Z,101144.69
2019-01-19T11:40:48.903Z,101144.69
2019-01-19T11:43:18.556Z,101135.53
2019-01-19T11:45:48.271Z,101127.24
2019-01-19T11:48:17.728Z,101125.00
2019-01-19T11:50:47.310Z,101125.83
2019-01-19T11:53:16.869Z,101124.00
2019-01-19T11:55:49.776Z,101120.50
2019-01-19T11:58:19.211Z,101115.73
2019-01-19T12:00:48.770Z,101113.04
2019-01-19T12:03:21.243Z,101109.51
2019-01-19T12:05:53.646Z,101112.92
2019-01-19T12:08:23.359Z,101100.33
2019-01-19T12:10:55.229Z,101093.40
2019-01-19T12:13:26.362Z,101094.23
2019-01-19T12:15:55.944Z,101093.25
2019-01-19T12:18:25.278Z,101098.46
2019-01-19T12:20:54.741Z,101092.00
2019-01-19T12:23:24.461Z,101085.53
2019-01-19T12:25:54.355Z,101079.31
2019-01-19T12:28:24.557Z,101073.02
2019-01-19T12:30:55.102Z,101070.62
2019-01-19T12:33:24.582Z,101063.63
2019-01-19T12:35:53.868Z,101063.69
2019-01-19T12:38:26.984Z,101070.58
2019-01-19T12:40:55.238Z,101061.12
2019-01-19T12:43:28.919Z,101058.47
2019-01-19T12:46:07.034Z,101053.54
2019-01-19T12:48:42.514Z,101057.70
2019-01-19T12:51:13.365Z,101057.42
2019-01-19T12:53:44.177Z,101054.77
2019-01-19T12:56:13.632Z,101054.81
2019-01-19T12:58:43.152Z,101049.98
2019-01-19T13:01:12.538Z,101047.29
2019-01-19T13:03:42.438Z,101044.09
2019-01-19T13:06:22.895Z,101043.32
2019-01-19T13:08:52.259Z,101040.17
2019-01-19T13:11:58.416Z,101030.21
2019-01-19T13:14:28.310Z,101028.09
2019-01-19T13:17:40.338Z,101027.39
2019-01-19T13:20:37.129Z,101022.17
2019-01-19T13:23:49.131Z,101019.47
2019-01-19T13:27:08.816Z,101013.47
2019-01-19T13:30:27.012Z,101009.66
2019-01-19T13:33:30.257Z,100998.69
2019-01-19T13:36:34.630Z,101001.88
2019-01-19T13:39:45.272Z,100995.31
2019-01-19T13:42:57.602Z,100994.97
2019-01-19T13:45:54.975Z,100991.92
2019-01-19T13:49:16.355Z,100988.40
2019-01-19T13:52:09.867Z,100992.46
2019-01-19T13:55:14.381Z,100980.94
2019-01-19T13:58:05.735Z,100982.59
2019-01-19T14:01:37.000Z,100985.59
2019-01-19T14:04:25.802Z,100982.87
2019-01-19T14:07:16.153Z,100977.91
2019-01-19T14:10:19.467Z,100975.18
2019-01-19T14:13:31.848Z,100969.31
2019-01-19T14:16:51.086Z,100964.98
2019-01-19T14:19:46.231Z,100969.42
2019-01-19T14:22:44.943Z,100966.91
2019-01-19T14:25:58.155Z,100962.34
2019-01-19T14:29:23.487Z,100967.25
2019-01-19T14:32:20.721Z,100956.45
2019-01-19T14:35:01.228Z,100958.70
2019-01-19T14:38:06.181Z,100957.88
2019-01-19T14:41:09.345Z,100950.59
2019-01-19T14:44:15.335Z,100949.69
2019-01-19T14:47:22.600Z,100940.66
2019-01-19T14:50:31.891Z,100935.08
2019-01-19T14:53:30.658Z,100936.74
2019-01-19T14:56:25.267Z,100932.06
2019-01-19T14:59:29.159Z,100934.66
2019-01-19T15:02:50.404Z,100932.98
2019-01-19T15:05:45.767Z,100931.72
2019-01-19T15:08:22.337Z,100924.81
2019-01-19T15:11:34.456Z,100929.20
2019-01-19T15:14:55.981Z,100925.75
2019-01-19T15:18:07.510Z,100923.58
2019-01-19T15:21:03.828Z,100918.41
2019-01-19T15:23:44.733Z,100923.23
2019-01-19T15:26:55.512Z,100930.22
2019-01-19T15:29:52.011Z,100931.61
2019-01-19T15:32:55.589Z,100926.51
2019-01-19T15:36:00.169Z,100920.93
2019-01-19T15:39:11.073Z,100921.41
2019-01-19T15:42:51.725Z,100923.61
2019-01-19T15:46:16.528Z,100921.95
2019-01-19T15:49:22.071Z,100917.72
2019-01-19T15:52:16.814Z,100919.02
2019-01-19T15:55:35.561Z,100917.40
2019-01-19T15:58:15.277Z,100914.00
2019-01-19T16:01:18.860Z,100919.30
2019-01-19T16:04:00.109Z,100915.81
2019-01-19T16:06:49.039Z,100912.82
2019-01-19T16:10:16.958Z,100916.77
2019-01-19T16:13:23.020Z,100912.94
2019-01-19T16:16:38.452Z,100912.16
2019-01-19T16:20:03.024Z,100910.94
2019-01-19T16:23:19.248Z,100914.45
2019-01-19T16:26:12.495Z,100904.03
2019-01-19T16:29:07.385Z,100908.44
2019-01-19T16:32:20.303Z,100908.92
2019-01-19T16:35:30.029Z,100912.42
2019-01-19T16:38:29.810Z,100912.02
2019-01-19T16:41:37.399Z,100909.53
2019-01-19T16:44:50.760Z,100915.14
2019-01-19T16:48:13.506Z,100913.41
2019-01-19T16:51:24.201Z,100907.41
2019-01-19T16:54:16.795Z,100904.83
2019-01-19T16:57:36.404Z,100905.75
2019-01-19T17:00:47.866Z,100902.28
2019-01-19T17:04:00.540Z,100905.38
2019-01-19T17:07:05.991Z,100904.52
2019-01-19T17:09:59.352Z,100902.36
2019-01-19T17:13:10.071Z,100903.23
2019-01-19T17:16:04.429Z,100904.98
2019-01-19T17:18:59.213Z,100900.28
2019-01-19T17:22:11.493Z,100897.69
2019-01-19T17:25:18.149Z,100890.36
2019-01-19T17:28:31.256Z,100896.00
2019-01-19T17:31:38.828Z,100887.81
2019-01-19T17:34:42.613Z,100888.29
2019-01-19T17:37:41.164Z,100891.31
2019-01-19T17:40:42.634Z,100888.33
2019-01-19T17:43:42.046Z,100889.20
2019-01-19T17:46:45.927Z,100889.64
2019-01-19T17:50:11.104Z,100889.67
2019-01-19T17:52:56.614Z,100891.41
2019-01-19T17:56:05.881Z,100890.58
2019-01-19T17:59:02.326Z,100886.68
2019-01-19T18:01:53.667Z,100892.80
2019-01-19T18:04:53.379Z,100886.32
2019-01-19T18:08:16.144Z,100887.63
2019-01-19T18:11:23.866Z,100893.27
2019-01-19T18:14:25.488Z,100891.59
2019-01-19T18:17:30.920Z,100891.14
2019-01-19T18:20:29.068Z,100892.04
2019-01-19T18:23:24.210Z,100882.58
2019-01-19T18:26:24.348Z,100893.84
2019-01-19T18:29:24.601Z,100889.56
2019-01-19T18:32:06.386Z,100888.30
2019-01-19T18:35:06.637Z,100884.84
2019-01-19T18:38:29.007Z,100879.66
2019-01-19T18:41:30.868Z,100880.13
2019-01-19T18:44:36.193Z,100882.30
2019-01-19T18:47:42.220Z,100879.71
2019-01-19T18:51:03.619Z,100876.27
2019-01-19T18:53:46.304Z,100878.87
2019-01-19T18:56:58.328Z,100880.63
2019-01-19T19:00:10.447Z,100886.73
2019-01-19T19:03:08.967Z,100882.39
2019-01-19T19:06:25.295Z,100883.70
2019-01-19T19:09:35.869Z,100881.12
2019-01-19T19:12:34.839Z,100882.02
2019-01-19T19:15:44.653Z,100879.84
2019-01-19T19:18:34.415Z,100879.45
2019-01-19T19:21:33.287Z,100882.06
2019-01-19T19:24:59.824Z,100881.61
2019-01-19T19:28:06.058Z,100885.11
2019-01-19T19:31:05.188Z,100882.94
2019-01-19T19:33:58.038Z,100885.97
2019-01-19T19:37:08.815Z,100884.68
2019-01-19T19:39:58.480Z,100885.96
2019-01-19T19:42:58.416Z,100887.31
2019-01-19T19:46:02.658Z,100887.31
2019-01-19T19:48:43.579Z,100890.80
2019-01-19T19:51:49.442Z,100893.39
2019-01-19T19:54:18.913Z,100889.07
2019-01-19T19:56:46.685Z,100887.75
2019-01-19T19:59:18.695Z,100885.63
2019-01-19T20:01:47.925Z,100885.64
2019-01-19T20:04:17.421Z,100889.95
2019-01-19T20:06:46.721Z,100889.55
2019-01-19T20:09:19.755Z,100893.87
2019-01-19T20:11:49.698Z,100894.30
2019-01-19T20:14:19.182Z,100891.28
2019-01-19T20:16:48.366Z,100895.20
2019-01-19T20:19:17.798Z,100902.55
2019-01-19T20:21:49.453Z,100902.13
2019-01-19T20:24:18.938Z,100905.60
2019-01-19T20:26:48.533Z,100903.42
2019-01-19T20:29:18.317Z,100903.44
2019-01-19T20:31:47.635Z,100898.68
2019-01-19T20:34:16.966Z,100894.37
2019-01-19T20:36:46.320Z,100889.61
2019-01-19T20:39:15.657Z,100893.51
2019-01-19T20:41:45.119Z,100892.22
2019-01-19T20:44:14.451Z,100892.65
2019-01-19T20:46:44.734Z,100893.53
2019-01-19T20:49:14.138Z,100894.38
2019-01-19T20:51:43.558Z,100896.98
2019-01-19T20:54:13.156Z,100892.67
2019-01-19T20:56:42.566Z,100889.20
2019-01-19T20:59:11.835Z,100892.69
2019-01-19T21:01:43.327Z,100891.82
2019-01-19T21:04:15.950Z,100887.06
2019-01-19T21:06:44.093Z,100887.52
2019-01-19T21:09:13.715Z,100892.70
2019-01-19T21:11:43.230Z,100895.72
2019-01-19T21:14:12.562Z,100895.73
2019-01-19T21:16:41.946Z,100899.20
2019-01-19T21:19:11.321Z,100907.40
2019-01-19T21:21:40.620Z,100905.23
2019-01-19T21:24:10.057Z,100905.67
2019-01-19T21:26:39.533Z,100909.58
2019-01-19T21:29:09.430Z,100912.17
2019-01-19T21:31:38.947Z,100916.91
2019-01-19T21:34:08.912Z,100910.42
2019-01-19T21:36:38.399Z,100919.92
2019-01-19T21:39:08.932Z,100911.72
2019-01-19T21:41:41.448Z,100911.30
2019-01-19T21:44:10.806Z,100912.59
2019-01-19T21:46:40.450Z,100910.84
2019-01-19T21:49:09.843Z,100912.59
2019-01-19T21:51:39.546Z,100910.43
2019-01-19T21:54:09.569Z,100913.44
2019-01-19T21:56:42.042Z,100918.63
2019-01-19T21:59:11.420Z,100916.48
2019-01-19T22:01:40.739Z,100913.45
2019-01-19T22:04:10.114Z,100914.33
2019-01-19T22:06:39.527Z,100921.23
2019-01-19T22:09:09.198Z,100913.03
2019-01-19T22:11:38.581Z,100919.52
2019-01-19T22:14:07.917Z,100916.50
2019-01-19T22:16:37.490Z,100919.50
2019-01-19T22:19:08.000Z,100917.78
2019-01-19T22:21:37.405Z,100919.51
2019-01-19T22:24:06.725Z,100926.41
2019-01-19T22:26:37.893Z,100913.03
2019-01-19T22:29:08.673Z,100916.92
2019-01-19T22:31:38.258Z,100914.33
2019-01-19T22:34:07.803Z,100917.77
2019-01-19T22:36:37.218Z,100922.53
2019-01-19T22:39:08.102Z,100920.81
2019-01-19T22:41:37.515Z,100922.95
2019-01-19T22:44:07.492Z,100920.81
2019-01-19T22:46:40.447Z,100921.66
2019-01-19T22:49:09.865Z,100918.64
2019-01-19T22:51:39.302Z,100924.25
2019-01-19T22:54:08.979Z,100919.52
2019-01-19T22:56:38.342Z,100911.29
2019-01-19T22:59:07.634Z,100919.52
2019-01-19T23:01:52.516Z,100916.05
2019-01-19T23:04:21.993Z,100913.46
2019-01-19T23:06:51.357Z,100913.00
2019-01-19T23:09:20.716Z,100918.64
2019-01-19T23:11:50.039Z,100909.12
2019-01-19T23:14:19.387Z,100914.30
2019-01-19T23:16:50.284Z,100916.47
2019-01-19T23:19:19.629Z,100917.34
2019-01-19T23:21:49.564Z,100916.89
2019-01-19T23:24:19.127Z,100924.25
2019-01-19T23:26:48.696Z,100923.83
2019-01-19T23:29:23.475Z,100926.84
2019-01-19T23:31:52.860Z,100921.23
2019-01-19T23:34:22.147Z,100929.00
2019-01-19T23:36:51.597Z,100925.95
2019-01-19T23:39:20.998Z,100929.00
2019-01-19T23:41:50.431Z,100925.54
2019-01-19T23:44:19.622Z,100922.53
2019-01-19T23:46:49.002Z,100919.48
2019-01-19T23:49:18.352Z,100918.64
2019-01-19T23:51:47.737Z,100919.94
2019-01-19T23:54:17.111Z,100925.08
2019-01-19T23:56:46.460Z,100925.08
2019-01-19T23:59:16.248Z,100923.78
